sensor_id;sensor_type;location;lat;lon;timestamp;P1;durP1;ratioP1;P2;durP2;ratioP2
75718;SDS011;64340;48.534;-3.036;2024-01-15T00:00:07;45.78;;;17.48;;
75718;SDS011;64340;48.534;-3.036;2024-01-15T00:02:33;39.33;;;15.98;;
75718;SDS011;64340;48.534;-3.036;2024-01-15T00:04:59;38.72;;;15.02;;
75718;SDS011;64340;48.534;-3.036;2024-01-15T00:07:25;33.90;;;13.85;;
75718;SDS011;64340;48.534;-3.036;2024-01-15T00:09:50;37.17;;;14.43;;
75718;SDS011;64340;48.534;-3.036;2024-01-15T00:12:16;33.60;;;13.48;;
75718;SDS011;64340;48.534;-3.036;2024-01-15T00:14:42;36.88;;;13.15;;
75718;SDS011;64340;48.534;-3.036;2024-01-15T00:17:07;28.77;;;12.48;;
75718;SDS011;64340;48.534;-3.036;2024-01-15T00:19:33;27.75;;;11.38;;
75718;SDS011;64340;48.534;-3.036;2024-01-15T00:21:59;29.27;;;11.52;;
75718;SDS011;64340;48.534;-3.036;2024-01-15T00:24:25;22.27;;;10.65;;
75718;SDS011;64340;48.534;-3.036;2024-01-15T00:26:50;23.67;;;10.55;;
75718;SDS011;64340;48.534;-3.036;2024-01-15T00:29:16;24.52;;;10.05;;
75718;SDS011;64340;48.534;-3.036;2024-01-15T00:31:42;24.27;;;9.30;;
75718;SDS011;64340;48.534;-3.036;2024-01-15T00:34:08;20.17;;;9.20;;
75718;SDS011;64340;48.534;-3.036;2024-01-15T00:36:33;23.15;;;10.00;;
75718;SDS011;64340;48.534;-3.036;2024-01-15T00:38:59;18.73;;;8.70;;
75718;SDS011;64340;48.534;-3.036;2024-01-15T00:41:25;21.75;;;8.73;;
75718;SDS011;64340;48.534;-3.036;2024-01-15T00:43:52;18.30;;;8.20;;
75718;SDS011;64340;48.534;-3.036;2024-01-15T00:46:18;17.30;;;7.20;;
75718;SDS011;64340;48.534;-3.036;2024-01-15T00:48:44;19.13;;;8.77;;
75718;SDS011;64340;48.534;-3.036;2024-01-15T00:51:10;17.45;;;7.65;;
75718;SDS011;64340;48.534;-3.036;2024-01-15T00:53:36;17.00;;;7.53;;
75718;SDS011;64340;48.534;-3.036;2024-01-15T00:56:01;15.18;;;7.20;;
75718;SDS011;64340;48.534;-3.036;2024-01-15T00:58:28;18.08;;;7.18;;
75718;SDS011;64340;48.534;-3.036;2024-01-15T01:00:54;14.50;;;6.53;;
75718;SDS011;64340;48.534;-3.036;2024-01-15T01:03:20;13.25;;;7.25;;
75718;SDS011;64340;48.534;-3.036;2024-01-15T01:05:48;15.15;;;6.40;;
75718;SDS011;64340;48.534;-3.036;2024-01-15T01:08:14;14.23;;;6.90;;
75718;SDS011;64340;48.534;-3.036;2024-01-15T01:10:40;13.38;;;6.40;;
75718;SDS011;64340;48.534;-3.036;2024-01-15T01:13:08;11.07;;;6.30;;
75718;SDS011;64340;48.534;-3.036;2024-01-15T01:15:34;13.48;;;6.18;;
75718;SDS011;64340;48.534;-3.036;2024-01-15T01:17:59;10.93;;;5.82;;
75718;SDS011;64340;48.534;-3.036;2024-01-15T01:20:25;13.90;;;6.03;;
75718;SDS011;64340;48.534;-3.036;2024-01-15T01:22:51;14.52;;;7.13;;
75718;SDS011;64340;48.534;-3.036;2024-01-15T01:25:16;12.23;;;5.88;;
75718;SDS011;64340;48.534;-3.036;2024-01-15T01:27:42;9.63;;;5.18;;
75718;SDS011;64340;48.534;-3.036;2024-01-15T01:30:08;10.50;;;5.85;;
75718;SDS011;64340;48.534;-3.036;2024-01-15T01:32:34;12.73;;;5.90;;
75718;SDS011;64340;48.534;-3.036;2024-01-15T01:35:00;10.70;;;5.63;;
75718;SDS011;64340;48.534;-3.036;2024-01-15T01:37:26;9.98;;;5.45;;
75718;SDS011;64340;48.534;-3.036;2024-01-15T01:39:52;11.88;;;5.25;;
75718;SDS011;64340;48.534;-3.036;2024-01-15T01:42:17;9.52;;;5.28;;
75718;SDS011;64340;48.534;-3.036;2024-01-15T01:44:43;9.10;;;4.82;;
75718;SDS011;64340;48.534;-3.036;2024-01-15T01:47:09;10.40;;;5.43;;
75718;SDS011;64340;48.534;-3.036;2024-01-15T01:49:35;9.15;;;4.63;;
75718;SDS011;64340;48.534;-3.036;2024-01-15T01:52:02;8.63;;;5.00;;
75718;SDS011;64340;48.534;-3.036;2024-01-15T01:54:31;10.15;;;5.32;;
75718;SDS011;64340;48.534;-3.036;2024-01-15T01:56:58;8.43;;;5.00;;
75718;SDS011;64340;48.534;-3.036;2024-01-15T01:59:27;11.93;;;5.30;;
75718;SDS011;64340;48.534;-3.036;2024-01-15T02:01:56;9.77;;;5.10;;
75718;SDS011;64340;48.534;-3.036;2024-01-15T02:04:23;9.93;;;5.05;;
75718;SDS011;64340;48.534;-3.036;2024-01-15T02:06:50;10.35;;;5.75;;
75718;SDS011;64340;48.534;-3.036;2024-01-15T02:09:16;8.88;;;4.47;;
75718;SDS011;64340;48.534;-3.036;2024-01-15T02:11:48;9.30;;;4.85;;
75718;SDS011;64340;48.534;-3.036;2024-01-15T02:14:14;6.90;;;4.90;;
75718;SDS011;64340;48.534;-3.036;2024-01-15T02:16:40;8.18;;;4.60;;
75718;SDS011;64340;48.534;-3.036;2024-01-15T02:19:06;9.55;;;5.13;;
75718;SDS011;64340;48.534;-3.036;2024-01-15T02:21:32;8.70;;;4.80;;
75718;SDS011;64340;48.534;-3.036;2024-01-15T02:23:58;8.55;;;4.43;;
75718;SDS011;64340;48.534;-3.036;2024-01-15T02:26:24;8.85;;;5.05;;
75718;SDS011;64340;48.534;-3.036;2024-01-15T02:28:50;7.03;;;4.05;;
75718;SDS011;64340;48.534;-3.036;2024-01-15T02:31:16;6.60;;;4.57;;
75718;SDS011;64340;48.534;-3.036;2024-01-15T02:33:43;7.88;;;4.50;;
75718;SDS011;64340;48.534;-3.036;2024-01-15T02:36:11;7.15;;;4.82;;
75718;SDS011;64340;48.534;-3.036;2024-01-15T02:38:37;8.77;;;4.60;;
75718;SDS011;64340;48.534;-3.036;2024-01-15T02:41:02;8.30;;;4.78;;
75718;SDS011;64340;48.534;-3.036;2024-01-15T02:43:28;8.35;;;4.90;;
75718;SDS011;64340;48.534;-3.036;2024-01-15T02:45:54;7.10;;;4.22;;
75718;SDS011;64340;48.534;-3.036;2024-01-15T02:48:20;7.90;;;4.72;;
75718;SDS011;64340;48.534;-3.036;2024-01-15T02:50:45;7.53;;;4.30;;
75718;SDS011;64340;48.534;-3.036;2024-01-15T02:53:11;8.43;;;5.07;;
75718;SDS011;64340;48.534;-3.036;2024-01-15T02:55:37;8.27;;;5.25;;
75718;SDS011;64340;48.534;-3.036;2024-01-15T02:58:03;7.80;;;4.43;;
75718;SDS011;64340;48.534;-3.036;2024-01-15T03:00:29;7.75;;;4.80;;
75718;SDS011;64340;48.534;-3.036;2024-01-15T03:02:55;7.03;;;4.10;;
75718;SDS011;64340;48.534;-3.036;2024-01-15T03:05:20;9.02;;;4.80;;
75718;SDS011;64340;48.534;-3.036;2024-01-15T03:07:46;8.85;;;5.13;;
75718;SDS011;64340;48.534;-3.036;2024-01-15T03:10:12;8.38;;;4.45;;
75718;SDS011;64340;48.534;-3.036;2024-01-15T03:12:38;7.97;;;4.82;;
75718;SDS011;64340;48.534;-3.036;2024-01-15T03:15:04;8.27;;;4.25;;
75718;SDS011;64340;48.534;-3.036;2024-01-15T03:17:30;8.25;;;5.03;;
75718;SDS011;64340;48.534;-3.036;2024-01-15T03:19:56;6.95;;;4.55;;
75718;SDS011;64340;48.534;-3.036;2024-01-15T03:22:21;8.43;;;4.55;;
75718;SDS011;64340;48.534;-3.036;2024-01-15T03:24:47;6.90;;;3.92;;
75718;SDS011;64340;48.534;-3.036;2024-01-15T03:27:13;7.88;;;4.15;;
75718;SDS011;64340;48.534;-3.036;2024-01-15T03:29:39;7.32;;;4.22;;
75718;SDS011;64340;48.534;-3.036;2024-01-15T03:32:06;8.10;;;4.63;;
75718;SDS011;64340;48.534;-3.036;2024-01-15T03:34:32;7.65;;;4.38;;
75718;SDS011;64340;48.534;-3.036;2024-01-15T03:36:58;7.20;;;4.22;;
75718;SDS011;64340;48.534;-3.036;2024-01-15T03:39:24;6.80;;;4.10;;
75718;SDS011;64340;48.534;-3.036;2024-01-15T03:41:50;6.75;;;4.28;;
75718;SDS011;64340;48.534;-3.036;2024-01-15T03:44:16;8.60;;;4.28;;
75718;SDS011;64340;48.534;-3.036;2024-01-15T03:46:42;7.43;;;4.35;;
75718;SDS011;64340;48.534;-3.036;2024-01-15T03:49:07;7.20;;;4.13;;
75718;SDS011;64340;48.534;-3.036;2024-01-15T03:51:33;7.05;;;4.18;;
75718;SDS011;64340;48.534;-3.036;2024-01-15T03:53:59;7.35;;;4.53;;
75718;SDS011;64340;48.534;-3.036;2024-01-15T03:56:24;7.40;;;4.55;;
75718;SDS011;64340;48.534;-3.036;2024-01-15T03:58:50;7.60;;;4.80;;
75718;SDS011;64340;48.534;-3.036;2024-01-15T04:01:16;7.63;;;4.60;;
75718;SDS011;64340;48.534;-3.036;2024-01-15T04:03:42;6.65;;;4.15;;
75718;SDS011;64340;48.534;-3.036;2024-01-15T04:06:07;7.40;;;4.30;;
75718;SDS011;64340;48.534;-3.036;2024-01-15T04:08:33;6.82;;;3.60;;
75718;SDS011;64340;48.534;-3.036;2024-01-15T04:10:59;7.53;;;4.68;;
75718;SDS011;64340;48.534;-3.036;2024-01-15T04:13:24;8.68;;;4.72;;
75718;SDS011;64340;48.534;-3.036;2024-01-15T04:15:50;7.35;;;4.30;;
75718;SDS011;64340;48.534;-3.036;2024-01-15T04:18:16;7.95;;;4.25;;
75718;SDS011;64340;48.534;-3.036;2024-01-15T04:20:43;7.47;;;4.78;;
75718;SDS011;64340;48.534;-3.036;2024-01-15T04:23:09;8.90;;;4.68;;
75718;SDS011;64340;48.534;-3.036;2024-01-15T04:25:35;5.93;;;3.95;;
75718;SDS011;64340;48.534;-3.036;2024-01-15T04:28:00;7.72;;;4.53;;
75718;SDS011;64340;48.534;-3.036;2024-01-15T04:30:26;7.78;;;4.82;;
75718;SDS011;64340;48.534;-3.036;2024-01-15T04:32:52;7.38;;;4.38;;
75718;SDS011;64340;48.534;-3.036;2024-01-15T04:35:17;6.68;;;3.92;;
75718;SDS011;64340;48.534;-3.036;2024-01-15T04:37:43;6.57;;;3.85;;
75718;SDS011;64340;48.534;-3.036;2024-01-15T04:40:09;7.22;;;4.47;;
75718;SDS011;64340;48.534;-3.036;2024-01-15T04:42:35;8.15;;;4.35;;
75718;SDS011;64340;48.534;-3.036;2024-01-15T04:45:01;9.32;;;4.68;;
75718;SDS011;64340;48.534;-3.036;2024-01-15T04:47:26;7.68;;;4.20;;
75718;SDS011;64340;48.534;-3.036;2024-01-15T04:49:52;6.50;;;4.05;;
75718;SDS011;64340;48.534;-3.036;2024-01-15T04:52:18;7.72;;;4.38;;
75718;SDS011;64340;48.534;-3.036;2024-01-15T04:54:43;6.70;;;4.00;;
75718;SDS011;64340;48.534;-3.036;2024-01-15T04:57:09;7.20;;;4.13;;
75718;SDS011;64340;48.534;-3.036;2024-01-15T04:59:35;7.47;;;4.00;;
75718;SDS011;64340;48.534;-3.036;2024-01-15T05:02:00;6.47;;;3.90;;
75718;SDS011;64340;48.534;-3.036;2024-01-15T05:04:26;8.35;;;4.72;;
75718;SDS011;64340;48.534;-3.036;2024-01-15T05:06:53;7.38;;;4.45;;
75718;SDS011;64340;48.534;-3.036;2024-01-15T05:09:19;7.47;;;4.15;;
75718;SDS011;64340;48.534;-3.036;2024-01-15T05:11:44;6.85;;;4.10;;
75718;SDS011;64340;48.534;-3.036;2024-01-15T05:14:10;7.38;;;4.15;;
75718;SDS011;64340;48.534;-3.036;2024-01-15T05:16:39;7.75;;;4.70;;
75718;SDS011;64340;48.534;-3.036;2024-01-15T05:19:06;9.73;;;5.03;;
75718;SDS011;64340;48.534;-3.036;2024-01-15T05:21:32;7.93;;;4.80;;
75718;SDS011;64340;48.534;-3.036;2024-01-15T05:23:58;8.82;;;4.57;;
75718;SDS011;64340;48.534;-3.036;2024-01-15T05:26:24;7.78;;;4.47;;
75718;SDS011;64340;48.534;-3.036;2024-01-15T05:28:49;8.15;;;4.70;;
75718;SDS011;64340;48.534;-3.036;2024-01-15T05:31:15;8.23;;;4.43;;
75718;SDS011;64340;48.534;-3.036;2024-01-15T05:33:41;7.30;;;4.43;;
75718;SDS011;64340;48.534;-3.036;2024-01-15T05:36:06;8.10;;;4.40;;
75718;SDS011;64340;48.534;-3.036;2024-01-15T05:38:32;8.73;;;4.30;;
75718;SDS011;64340;48.534;-3.036;2024-01-15T05:40:58;6.75;;;4.32;;
75718;SDS011;64340;48.534;-3.036;2024-01-15T05:43:23;7.20;;;3.88;;
75718;SDS011;64340;48.534;-3.036;2024-01-15T05:45:49;10.25;;;4.03;;
75718;SDS011;64340;48.534;-3.036;2024-01-15T05:48:15;8.95;;;4.40;;
75718;SDS011;64340;48.534;-3.036;2024-01-15T05:50:41;6.63;;;4.10;;
75718;SDS011;64340;48.534;-3.036;2024-01-15T05:53:06;9.55;;;4.50;;
75718;SDS011;64340;48.534;-3.036;2024-01-15T05:55:32;9.88;;;4.35;;
75718;SDS011;64340;48.534;-3.036;2024-01-15T05:57:58;9.88;;;4.80;;
75718;SDS011;64340;48.534;-3.036;2024-01-15T06:00:23;10.48;;;4.38;;
75718;SDS011;64340;48.534;-3.036;2024-01-15T06:02:49;10.50;;;4.40;;
75718;SDS011;64340;48.534;-3.036;2024-01-15T06:05:15;10.55;;;4.10;;
75718;SDS011;64340;48.534;-3.036;2024-01-15T06:07:41;11.23;;;4.32;;
75718;SDS011;64340;48.534;-3.036;2024-01-15T06:10:07;9.85;;;4.05;;
75718;SDS011;64340;48.534;-3.036;2024-01-15T06:12:33;9.63;;;4.47;;
75718;SDS011;64340;48.534;-3.036;2024-01-15T06:14:58;12.43;;;4.35;;
75718;SDS011;64340;48.534;-3.036;2024-01-15T06:17:24;8.43;;;3.83;;
75718;SDS011;64340;48.534;-3.036;2024-01-15T06:19:50;8.40;;;4.03;;
75718;SDS011;64340;48.534;-3.036;2024-01-15T06:22:16;8.60;;;4.25;;
75718;SDS011;64340;48.534;-3.036;2024-01-15T06:24:41;7.97;;;3.55;;
75718;SDS011;64340;48.534;-3.036;2024-01-15T06:27:07;7.40;;;3.30;;
75718;SDS011;64340;48.534;-3.036;2024-01-15T06:29:33;9.18;;;3.90;;
75718;SDS011;64340;48.534;-3.036;2024-01-15T06:32:02;13.38;;;4.00;;
75718;SDS011;64340;48.534;-3.036;2024-01-15T06:34:28;12.40;;;3.92;;
75718;SDS011;64340;48.534;-3.036;2024-01-15T06:36:54;10.50;;;4.40;;
75718;SDS011;64340;48.534;-3.036;2024-01-15T06:39:19;13.73;;;3.90;;
75718;SDS011;64340;48.534;-3.036;2024-01-15T06:41:45;13.63;;;3.50;;
75718;SDS011;64340;48.534;-3.036;2024-01-15T06:44:11;9.68;;;3.40;;
75718;SDS011;64340;48.534;-3.036;2024-01-15T06:46:44;11.32;;;3.03;;
75718;SDS011;64340;48.534;-3.036;2024-01-15T06:49:11;11.75;;;3.35;;
75718;SDS011;64340;48.534;-3.036;2024-01-15T06:51:37;11.82;;;3.45;;
75718;SDS011;64340;48.534;-3.036;2024-01-15T06:54:03;11.48;;;3.92;;
75718;SDS011;64340;48.534;-3.036;2024-01-15T06:56:29;8.73;;;3.80;;
75718;SDS011;64340;48.534;-3.036;2024-01-15T06:58:54;6.13;;;2.78;;
75718;SDS011;64340;48.534;-3.036;2024-01-15T07:01:20;10.00;;;3.25;;
75718;SDS011;64340;48.534;-3.036;2024-01-15T07:03:46;6.65;;;3.03;;
75718;SDS011;64340;48.534;-3.036;2024-01-15T07:06:12;5.10;;;2.53;;
75718;SDS011;64340;48.534;-3.036;2024-01-15T07:08:39;7.43;;;2.95;;
75718;SDS011;64340;48.534;-3.036;2024-01-15T07:11:04;7.72;;;2.78;;
75718;SDS011;64340;48.534;-3.036;2024-01-15T07:13:30;6.40;;;2.88;;
75718;SDS011;64340;48.534;-3.036;2024-01-15T07:15:57;8.15;;;2.75;;
75718;SDS011;64340;48.534;-3.036;2024-01-15T07:18:22;6.10;;;2.40;;
75718;SDS011;64340;48.534;-3.036;2024-01-15T07:20:48;5.25;;;2.30;;
75718;SDS011;64340;48.534;-3.036;2024-01-15T07:23:14;9.25;;;3.08;;
75718;SDS011;64340;48.534;-3.036;2024-01-15T07:25:40;6.68;;;2.05;;
75718;SDS011;64340;48.534;-3.036;2024-01-15T07:28:06;7.50;;;2.47;;
75718;SDS011;64340;48.534;-3.036;2024-01-15T07:30:32;5.22;;;2.50;;
75718;SDS011;64340;48.534;-3.036;2024-01-15T07:32:57;8.90;;;1.90;;
75718;SDS011;64340;48.534;-3.036;2024-01-15T07:35:23;7.28;;;2.47;;
75718;SDS011;64340;48.534;-3.036;2024-01-15T07:37:49;5.65;;;2.20;;
75718;SDS011;64340;48.534;-3.036;2024-01-15T07:40:15;4.35;;;1.95;;
75718;SDS011;64340;48.534;-3.036;2024-01-15T07:42:41;6.55;;;2.05;;
75718;SDS011;64340;48.534;-3.036;2024-01-15T07:45:07;3.97;;;1.85;;
75718;SDS011;64340;48.534;-3.036;2024-01-15T07:47:34;4.10;;;1.90;;
75718;SDS011;64340;48.534;-3.036;2024-01-15T07:50:00;5.38;;;2.30;;
75718;SDS011;64340;48.534;-3.036;2024-01-15T07:52:25;7.72;;;2.25;;
75718;SDS011;64340;48.534;-3.036;2024-01-15T07:54:51;3.75;;;1.73;;
75718;SDS011;64340;48.534;-3.036;2024-01-15T07:57:17;6.32;;;2.17;;
75718;SDS011;64340;48.534;-3.036;2024-01-15T07:59:43;4.90;;;1.80;;
75718;SDS011;64340;48.534;-3.036;2024-01-15T08:02:08;4.72;;;1.60;;
75718;SDS011;64340;48.534;-3.036;2024-01-15T08:04:36;3.45;;;1.75;;
75718;SDS011;64340;48.534;-3.036;2024-01-15T08:07:03;4.22;;;1.90;;
75718;SDS011;64340;48.534;-3.036;2024-01-15T08:09:29;4.47;;;1.60;;
75718;SDS011;64340;48.534;-3.036;2024-01-15T08:11:55;3.28;;;1.63;;
75718;SDS011;64340;48.534;-3.036;2024-01-15T08:14:20;6.35;;;1.75;;
75718;SDS011;64340;48.534;-3.036;2024-01-15T08:16:46;5.50;;;1.75;;
75718;SDS011;64340;48.534;-3.036;2024-01-15T08:19:12;4.85;;;1.63;;
75718;SDS011;64340;48.534;-3.036;2024-01-15T08:21:39;4.13;;;1.60;;
75718;SDS011;64340;48.534;-3.036;2024-01-15T08:24:05;4.25;;;1.60;;
75718;SDS011;64340;48.534;-3.036;2024-01-15T08:26:31;3.03;;;1.52;;
75718;SDS011;64340;48.534;-3.036;2024-01-15T08:28:57;3.58;;;1.40;;
75718;SDS011;64340;48.534;-3.036;2024-01-15T08:31:23;2.92;;;1.27;;
75718;SDS011;64340;48.534;-3.036;2024-01-15T08:33:49;4.63;;;1.27;;
75718;SDS011;64340;48.534;-3.036;2024-01-15T08:36:15;3.35;;;1.40;;
75718;SDS011;64340;48.534;-3.036;2024-01-15T08:38:40;3.33;;;1.38;;
75718;SDS011;64340;48.534;-3.036;2024-01-15T08:41:06;3.22;;;1.45;;
75718;SDS011;64340;48.534;-3.036;2024-01-15T08:43:33;4.85;;;1.50;;
75718;SDS011;64340;48.534;-3.036;2024-01-15T08:45:59;2.35;;;1.02;;
75718;SDS011;64340;48.534;-3.036;2024-01-15T08:48:25;3.03;;;1.33;;
75718;SDS011;64340;48.534;-3.036;2024-01-15T08:50:55;4.20;;;1.45;;
75718;SDS011;64340;48.534;-3.036;2024-01-15T08:53:22;3.10;;;1.20;;
75718;SDS011;64340;48.534;-3.036;2024-01-15T08:55:47;2.78;;;1.13;;
75718;SDS011;64340;48.534;-3.036;2024-01-15T08:58:14;2.95;;;1.23;;
75718;SDS011;64340;48.534;-3.036;2024-01-15T09:00:40;3.78;;;1.27;;
75718;SDS011;64340;48.534;-3.036;2024-01-15T09:03:05;3.65;;;1.10;;
75718;SDS011;64340;48.534;-3.036;2024-01-15T09:05:31;3.25;;;1.35;;
75718;SDS011;64340;48.534;-3.036;2024-01-15T09:07:57;2.95;;;1.45;;
75718;SDS011;64340;48.534;-3.036;2024-01-15T09:10:23;2.47;;;1.10;;
75718;SDS011;64340;48.534;-3.036;2024-01-15T09:12:49;2.88;;;1.13;;
75718;SDS011;64340;48.534;-3.036;2024-01-15T09:15:15;2.70;;;1.00;;
75718;SDS011;64340;48.534;-3.036;2024-01-15T09:17:41;3.08;;;1.30;;
75718;SDS011;64340;48.534;-3.036;2024-01-15T09:20:08;3.45;;;0.98;;
75718;SDS011;64340;48.534;-3.036;2024-01-15T09:22:34;3.28;;;1.33;;
75718;SDS011;64340;48.534;-3.036;2024-01-15T09:25:01;3.00;;;1.02;;
75718;SDS011;64340;48.534;-3.036;2024-01-15T09:27:26;2.83;;;1.13;;
75718;SDS011;64340;48.534;-3.036;2024-01-15T09:29:52;3.10;;;0.80;;
75718;SDS011;64340;48.534;-3.036;2024-01-15T09:32:18;2.85;;;1.10;;
75718;SDS011;64340;48.534;-3.036;2024-01-15T09:34:45;2.17;;;0.73;;
75718;SDS011;64340;48.534;-3.036;2024-01-15T09:37:11;1.58;;;0.80;;
75718;SDS011;64340;48.534;-3.036;2024-01-15T09:39:39;3.33;;;1.17;;
75718;SDS011;64340;48.534;-3.036;2024-01-15T09:42:05;1.83;;;0.90;;
75718;SDS011;64340;48.534;-3.036;2024-01-15T09:44:31;2.35;;;0.88;;
75718;SDS011;64340;48.534;-3.036;2024-01-15T09:46:57;1.80;;;0.93;;
75718;SDS011;64340;48.534;-3.036;2024-01-15T09:49:23;2.17;;;0.93;;
75718;SDS011;64340;48.534;-3.036;2024-01-15T09:51:49;2.33;;;0.98;;
75718;SDS011;64340;48.534;-3.036;2024-01-15T09:54:18;2.10;;;0.90;;
75718;SDS011;64340;48.534;-3.036;2024-01-15T09:56:46;1.67;;;0.68;;
75718;SDS011;64340;48.534;-3.036;2024-01-15T09:59:18;3.15;;;1.10;;
75718;SDS011;64340;48.534;-3.036;2024-01-15T10:01:45;1.80;;;0.75;;
75718;SDS011;64340;48.534;-3.036;2024-01-15T10:04:12;2.72;;;0.90;;
75718;SDS011;64340;48.534;-3.036;2024-01-15T10:06:38;1.63;;;0.73;;
75718;SDS011;64340;48.534;-3.036;2024-01-15T10:09:08;1.60;;;0.60;;
75718;SDS011;64340;48.534;-3.036;2024-01-15T10:11:34;2.05;;;0.85;;
75718;SDS011;64340;48.534;-3.036;2024-01-15T10:14:00;2.50;;;0.95;;
75718;SDS011;64340;48.534;-3.036;2024-01-15T10:16:26;2.20;;;0.98;;
75718;SDS011;64340;48.534;-3.036;2024-01-15T10:18:52;2.45;;;0.98;;
75718;SDS011;64340;48.534;-3.036;2024-01-15T10:21:18;2.20;;;0.75;;
75718;SDS011;64340;48.534;-3.036;2024-01-15T10:23:44;2.35;;;0.80;;
75718;SDS011;64340;48.534;-3.036;2024-01-15T10:26:09;2.50;;;0.80;;
75718;SDS011;64340;48.534;-3.036;2024-01-15T10:28:37;1.77;;;0.70;;
75718;SDS011;64340;48.534;-3.036;2024-01-15T10:31:03;1.55;;;0.80;;
75718;SDS011;64340;48.534;-3.036;2024-01-15T10:33:29;2.95;;;0.75;;
75718;SDS011;64340;48.534;-3.036;2024-01-15T10:35:58;5.57;;;1.00;;
75718;SDS011;64340;48.534;-3.036;2024-01-15T10:38:25;1.88;;;0.60;;
75718;SDS011;64340;48.534;-3.036;2024-01-15T10:40:52;1.55;;;0.65;;
75718;SDS011;64340;48.534;-3.036;2024-01-15T10:43:19;1.52;;;0.70;;
75718;SDS011;64340;48.534;-3.036;2024-01-15T10:45:45;2.67;;;0.57;;
75718;SDS011;64340;48.534;-3.036;2024-01-15T10:48:12;1.60;;;0.55;;
75718;SDS011;64340;48.534;-3.036;2024-01-15T10:50:38;1.90;;;0.73;;
75718;SDS011;64340;48.534;-3.036;2024-01-15T10:53:04;1.20;;;0.63;;
75718;SDS011;64340;48.534;-3.036;2024-01-15T10:55:31;2.88;;;0.70;;
75718;SDS011;64340;48.534;-3.036;2024-01-15T10:57:58;2.10;;;0.70;;
75718;SDS011;64340;48.534;-3.036;2024-01-15T11:00:25;2.92;;;0.52;;
75718;SDS011;64340;48.534;-3.036;2024-01-15T11:02:51;1.80;;;0.65;;
75718;SDS011;64340;48.534;-3.036;2024-01-15T11:05:20;1.50;;;0.60;;
75718;SDS011;64340;48.534;-3.036;2024-01-15T11:07:48;1.48;;;0.70;;
75718;SDS011;64340;48.534;-3.036;2024-01-15T11:11:00;2.95;;;0.90;;
75718;SDS011;64340;48.534;-3.036;2024-01-15T11:13:23;1.77;;;0.65;;
75718;SDS011;64340;48.534;-3.036;2024-01-15T11:16:06;1.63;;;0.70;;
75718;SDS011;64340;48.534;-3.036;2024-01-15T11:18:37;2.65;;;0.80;;
75718;SDS011;64340;48.534;-3.036;2024-01-15T11:29:06;1.00;;;0.60;;
75718;SDS011;64340;48.534;-3.036;2024-01-15T11:34:21;1.88;;;0.80;;
75718;SDS011;64340;48.534;-3.036;2024-01-15T11:37:07;2.00;;;0.68;;
75718;SDS011;64340;48.534;-3.036;2024-01-15T11:41:59;2.05;;;1.45;;
75718;SDS011;64340;48.534;-3.036;2024-01-15T11:44:26;1.52;;;0.50;;
75718;SDS011;64340;48.534;-3.036;2024-01-15T11:47:02;1.50;;;0.50;;
75718;SDS011;64340;48.534;-3.036;2024-01-15T11:52:22;0.70;;;0.35;;
75718;SDS011;64340;48.534;-3.036;2024-01-15T11:57:51;2.50;;;0.47;;
75718;SDS011;64340;48.534;-3.036;2024-01-15T12:00:19;1.73;;;0.50;;
75718;SDS011;64340;48.534;-3.036;2024-01-15T12:02:46;1.15;;;0.50;;
75718;SDS011;64340;48.534;-3.036;2024-01-15T12:05:13;1.23;;;0.40;;
75718;SDS011;64340;48.534;-3.036;2024-01-15T12:07:40;1.08;;;0.50;;
75718;SDS011;64340;48.534;-3.036;2024-01-15T12:10:17;1.95;;;0.75;;
75718;SDS011;64340;48.534;-3.036;2024-01-15T12:15:26;1.40;;;0.50;;
75718;SDS011;64340;48.534;-3.036;2024-01-15T12:17:55;1.65;;;0.38;;
75718;SDS011;64340;48.534;-3.036;2024-01-15T12:20:26;1.27;;;0.50;;
75718;SDS011;64340;48.534;-3.036;2024-01-15T12:22:52;1.27;;;0.50;;
75718;SDS011;64340;48.534;-3.036;2024-01-15T12:25:18;1.40;;;0.40;;
75718;SDS011;64340;48.534;-3.036;2024-01-15T12:27:44;1.38;;;0.38;;
75718;SDS011;64340;48.534;-3.036;2024-01-15T12:30:11;1.45;;;0.60;;
75718;SDS011;64340;48.534;-3.036;2024-01-15T12:32:37;1.95;;;0.50;;
75718;SDS011;64340;48.534;-3.036;2024-01-15T12:35:03;1.70;;;0.40;;
75718;SDS011;64340;48.534;-3.036;2024-01-15T12:37:29;1.80;;;0.65;;
75718;SDS011;64340;48.534;-3.036;2024-01-15T12:39:55;1.55;;;0.60;;
75718;SDS011;64340;48.534;-3.036;2024-01-15T12:42:24;1.60;;;0.40;;
75718;SDS011;64340;48.534;-3.036;2024-01-15T12:44:49;1.15;;;0.47;;
75718;SDS011;64340;48.534;-3.036;2024-01-15T12:47:15;1.42;;;0.45;;
75718;SDS011;64340;48.534;-3.036;2024-01-15T12:49:46;1.40;;;0.40;;
75718;SDS011;64340;48.534;-3.036;2024-01-15T12:52:15;1.13;;;0.50;;
75718;SDS011;64340;48.534;-3.036;2024-01-15T12:54:43;1.58;;;0.60;;
75718;SDS011;64340;48.534;-3.036;2024-01-15T12:57:09;1.02;;;0.40;;
75718;SDS011;64340;48.534;-3.036;2024-01-15T12:59:35;1.83;;;0.88;;
75718;SDS011;64340;48.534;-3.036;2024-01-15T13:02:00;1.70;;;0.50;;
75718;SDS011;64340;48.534;-3.036;2024-01-15T13:04:26;0.73;;;0.25;;
75718;SDS011;64340;48.534;-3.036;2024-01-15T13:06:52;3.50;;;0.75;;
75718;SDS011;64340;48.534;-3.036;2024-01-15T13:09:18;1.70;;;0.40;;
75718;SDS011;64340;48.534;-3.036;2024-01-15T13:11:46;1.30;;;0.40;;
75718;SDS011;64340;48.534;-3.036;2024-01-15T13:14:12;2.60;;;0.47;;
75718;SDS011;64340;48.534;-3.036;2024-01-15T13:16:39;1.65;;;0.47;;
75718;SDS011;64340;48.534;-3.036;2024-01-15T13:19:06;1.63;;;0.40;;
75718;SDS011;64340;48.534;-3.036;2024-01-15T13:21:33;1.20;;;0.38;;
75718;SDS011;64340;48.534;-3.036;2024-01-15T13:23:59;1.42;;;0.50;;
75718;SDS011;64340;48.534;-3.036;2024-01-15T13:26:24;3.13;;;0.47;;
75718;SDS011;64340;48.534;-3.036;2024-01-15T13:28:50;2.00;;;0.50;;
75718;SDS011;64340;48.534;-3.036;2024-01-15T13:31:16;1.55;;;0.57;;
75718;SDS011;64340;48.534;-3.036;2024-01-15T13:33:42;1.75;;;0.40;;
75718;SDS011;64340;48.534;-3.036;2024-01-15T13:36:07;0.85;;;0.40;;
75718;SDS011;64340;48.534;-3.036;2024-01-15T13:38:36;1.52;;;0.32;;
75718;SDS011;64340;48.534;-3.036;2024-01-15T13:41:05;1.95;;;0.43;;
75718;SDS011;64340;48.534;-3.036;2024-01-15T13:43:31;1.98;;;0.50;;
75718;SDS011;64340;48.534;-3.036;2024-01-15T13:45:58;1.50;;;0.55;;
75718;SDS011;64340;48.534;-3.036;2024-01-15T13:48:24;0.68;;;0.30;;
75718;SDS011;64340;48.534;-3.036;2024-01-15T13:50:51;1.02;;;0.45;;
75718;SDS011;64340;48.534;-3.036;2024-01-15T13:53:17;1.20;;;0.30;;
75718;SDS011;64340;48.534;-3.036;2024-01-15T13:55:44;1.00;;;0.30;;
75718;SDS011;64340;48.534;-3.036;2024-01-15T13:58:10;1.92;;;0.60;;
75718;SDS011;64340;48.534;-3.036;2024-01-15T14:00:36;1.25;;;0.40;;
75718;SDS011;64340;48.534;-3.036;2024-01-15T14:03:02;1.00;;;0.30;;
75718;SDS011;64340;48.534;-3.036;2024-01-15T14:05:28;2.10;;;0.40;;
75718;SDS011;64340;48.534;-3.036;2024-01-15T14:07:54;0.38;;;0.20;;
75718;SDS011;64340;48.534;-3.036;2024-01-15T14:10:20;1.50;;;0.50;;
75718;SDS011;64340;48.534;-3.036;2024-01-15T14:12:46;2.20;;;0.30;;
75718;SDS011;64340;48.534;-3.036;2024-01-15T14:15:12;10.45;;;8.25;;
75718;SDS011;64340;48.534;-3.036;2024-01-15T14:17:38;4.72;;;2.88;;
75718;SDS011;64340;48.534;-3.036;2024-01-15T14:20:04;34.28;;;17.63;;
75718;SDS011;64340;48.534;-3.036;2024-01-15T14:22:31;59.88;;;29.45;;
75718;SDS011;64340;48.534;-3.036;2024-01-15T14:24:57;42.08;;;20.30;;
75718;SDS011;64340;48.534;-3.036;2024-01-15T14:27:22;29.45;;;16.38;;
75718;SDS011;64340;48.534;-3.036;2024-01-15T14:29:48;25.33;;;13.75;;
75718;SDS011;64340;48.534;-3.036;2024-01-15T14:32:14;27.33;;;12.80;;
75718;SDS011;64340;48.534;-3.036;2024-01-15T14:34:40;24.02;;;11.77;;
75718;SDS011;64340;48.534;-3.036;2024-01-15T14:37:05;22.08;;;10.02;;
75718;SDS011;64340;48.534;-3.036;2024-01-15T14:39:31;20.40;;;9.70;;
75718;SDS011;64340;48.534;-3.036;2024-01-15T14:41:59;19.52;;;9.18;;
75718;SDS011;64340;48.534;-3.036;2024-01-15T14:44:25;14.95;;;7.28;;
75718;SDS011;64340;48.534;-3.036;2024-01-15T14:46:51;17.40;;;8.65;;